createdAt,value
2019-06-26T00:01:13.897Z,20.70
2019-06-26T00:03:34.428Z,20.70
2019-06-26T00:05:57.099Z,20.60
2019-06-26T00:08:19.015Z,20.50
2019-06-26T00:10:39.392Z,20.60
2019-06-26T00:12:59.626Z,20.60
2019-06-26T00:15:19.946Z,20.60
2019-06-26T00:17:40.212Z,20.50
2019-06-26T00:20:00.454Z,20.50
2019-06-26T00:22:20.809Z,20.50
2019-06-26T00:24:41.095Z,20.50
2019-06-26T00:27:01.432Z,20.50
2019-06-26T00:29:21.632Z,20.50
2019-06-26T00:31:41.997Z,20.50
2019-06-26T00:34:02.499Z,20.40
2019-06-26T00:36:23.700Z,20.40
2019-06-26T00:38:43.965Z,20.50
2019-06-26T00:41:05.162Z,20.50
2019-06-26T00:43:38.481Z,20.50
2019-06-26T00:45:47.449Z,20.30
2019-06-26T00:48:07.766Z,20.30
2019-06-26T00:50:29.479Z,20.20
2019-06-26T00:52:49.737Z,20.20
2019-06-26T00:55:10.112Z,20.30
2019-06-26T00:57:30.526Z,20.20
2019-06-26T00:59:53.684Z,20.20
2019-06-26T01:02:13.962Z,20.40
2019-06-26T01:04:35.904Z,20.40
2019-06-26T01:06:57.044Z,20.30
2019-06-26T01:09:16.958Z,20.30
2019-06-26T01:11:36.949Z,20.50
2019-06-26T01:13:58.270Z,20.60
2019-06-26T01:16:18.567Z,20.50
2019-06-26T01:18:38.718Z,20.50
2019-06-26T01:20:58.961Z,20.50
2019-06-26T01:23:19.211Z,20.40
2019-06-26T01:25:39.511Z,20.30
2019-06-26T01:27:59.766Z,20.30
2019-06-26T01:30:20.215Z,20.20
2019-06-26T01:32:40.475Z,20.10
2019-06-26T01:35:00.721Z,20.00
2019-06-26T01:37:21.029Z,19.90
2019-06-26T01:39:41.303Z,19.90
2019-06-26T01:42:01.549Z,19.90
2019-06-26T01:44:21.786Z,19.90
2019-06-26T01:46:42.018Z,19.90
2019-06-26T01:49:02.529Z,19.90
2019-06-26T01:51:22.848Z,19.90
2019-06-26T01:53:43.049Z,19.80
2019-06-26T01:56:03.209Z,19.80
2019-06-26T01:58:23.419Z,19.70
2019-06-26T02:00:43.689Z,19.60
2019-06-26T02:03:04.030Z,19.60
2019-06-26T02:05:24.323Z,19.60
2019-06-26T02:07:44.665Z,19.80
2019-06-26T02:10:06.646Z,20.00
2019-06-26T02:12:26.971Z,19.90
2019-06-26T02:14:47.214Z,19.80
2019-06-26T02:17:07.579Z,19.80
2019-06-26T02:19:27.835Z,19.70
2019-06-26T02:21:49.625Z,19.70
2019-06-26T02:24:09.921Z,19.60
2019-06-26T02:26:30.262Z,19.70
2019-06-26T02:28:50.863Z,19.60
2019-06-26T02:31:11.953Z,19.60
2019-06-26T02:33:32.178Z,19.60
2019-06-26T02:35:55.476Z,19.50
2019-06-26T02:38:15.700Z,19.50
2019-06-26T02:40:37.965Z,19.60
2019-06-26T02:42:58.178Z,19.60
2019-06-26T02:45:18.736Z,19.50
2019-06-26T02:47:39.082Z,19.50
2019-06-26T02:49:59.340Z,19.40
2019-06-26T02:52:20.564Z,19.50
2019-06-26T02:54:40.850Z,19.40
2019-06-26T02:57:01.159Z,19.30
2019-06-26T02:59:21.484Z,19.30
2019-06-26T03:01:42.064Z,19.30
2019-06-26T03:04:02.405Z,19.20
2019-06-26T03:06:23.588Z,19.20
2019-06-26T03:08:44.086Z,19.30
2019-06-26T03:11:04.482Z,19.40
2019-06-26T03:13:24.834Z,19.50
2019-06-26T03:15:45.031Z,19.40
2019-06-26T03:18:05.555Z,19.50
2019-06-26T03:20:28.895Z,19.40
2019-06-26T03:22:49.124Z,19.40
2019-06-26T03:25:10.125Z,19.50
2019-06-26T03:27:30.481Z,19.30
2019-06-26T03:29:50.723Z,19.30
2019-06-26T03:32:11.061Z,19.40
2019-06-26T03:34:31.334Z,19.40
2019-06-26T03:36:51.557Z,19.40
2019-06-26T03:39:11.839Z,19.30
2019-06-26T03:41:32.112Z,19.30
2019-06-26T03:43:52.453Z,19.20
2019-06-26T03:46:12.704Z,19.20
2019-06-26T03:48:34.593Z,19.20
2019-06-26T03:50:54.857Z,19.30
2019-06-26T03:53:15.159Z,19.40
2019-06-26T03:55:36.454Z,19.40
2019-06-26T03:57:56.781Z,19.50
2019-06-26T04:00:20.158Z,19.40
2019-06-26T04:02:40.387Z,19.40
2019-06-26T04:05:00.708Z,19.50
2019-06-26T04:07:20.967Z,19.40
2019-06-26T04:09:41.305Z,19.30
2019-06-26T04:12:03.774Z,19.40
2019-06-26T04:14:23.656Z,19.60
2019-06-26T04:16:44.925Z,19.70
2019-06-26T04:19:05.269Z,19.70
2019-06-26T04:21:25.664Z,19.90
2019-06-26T04:23:45.911Z,19.90
2019-06-26T04:26:07.736Z,19.80
2019-06-26T04:28:27.952Z,20.00
2019-06-26T04:30:48.196Z,20.00
2019-06-26T04:33:08.544Z,20.00
2019-06-26T04:35:29.454Z,20.00
2019-06-26T04:37:49.790Z,20.00
2019-06-26T04:40:10.897Z,20.00
2019-06-26T04:42:31.136Z,20.00
2019-06-26T04:44:51.473Z,20.00
2019-06-26T04:47:11.648Z,20.10
2019-06-26T04:49:31.948Z,20.20
2019-06-26T04:51:52.209Z,20.20
2019-06-26T04:54:12.483Z,20.30
2019-06-26T04:56:32.731Z,20.30
2019-06-26T04:58:52.999Z,20.40
2019-06-26T05:01:14.335Z,20.50
2019-06-26T05:03:34.581Z,20.60
2019-06-26T05:05:55.004Z,20.70
2019-06-26T05:08:15.259Z,20.70
2019-06-26T05:10:35.609Z,20.70
2019-06-26T05:12:55.803Z,20.80
2019-06-26T05:15:16.336Z,20.90
2019-06-26T05:17:36.614Z,21.00
2019-06-26T05:19:57.014Z,21.00
2019-06-26T05:22:17.260Z,21.10
2019-06-26T05:24:38.557Z,21.20
2019-06-26T05:26:58.788Z,21.30
2019-06-26T05:29:19.063Z,21.40
2019-06-26T05:31:39.303Z,21.40
2019-06-26T05:33:59.630Z,21.50
2019-06-26T05:36:19.974Z,21.50
2019-06-26T05:38:40.255Z,21.60
2019-06-26T05:41:00.489Z,21.70
2019-06-26T05:43:20.820Z,21.80
2019-06-26T05:45:41.094Z,21.90
2019-06-26T05:48:01.549Z,22.00
2019-06-26T05:50:22.136Z,22.10
2019-06-26T05:52:43.144Z,22.10
2019-06-26T05:55:03.915Z,22.20
2019-06-26T05:57:24.174Z,22.30
2019-06-26T05:59:44.420Z,22.30
2019-06-26T06:02:04.837Z,22.30
2019-06-26T06:04:25.108Z,22.40
2019-06-26T06:06:45.379Z,22.50
2019-06-26T06:09:06.553Z,22.60
2019-06-26T06:11:26.959Z,22.60
2019-06-26T06:13:47.166Z,22.70
2019-06-26T06:16:07.376Z,22.70
2019-06-26T06:18:27.626Z,22.80
2019-06-26T06:20:47.827Z,22.90
2019-06-26T06:23:08.237Z,23.00
2019-06-26T06:25:28.535Z,23.10
2019-06-26T06:27:49.755Z,23.30
2019-06-26T06:30:11.274Z,23.40
2019-06-26T06:32:31.504Z,23.40
2019-06-26T06:34:51.842Z,23.60
2019-06-26T06:37:12.104Z,23.60
2019-06-26T06:39:32.352Z,23.70
2019-06-26T06:41:59.290Z,23.80
2019-06-26T06:44:19.542Z,24.10
2019-06-26T06:46:39.897Z,24.30
2019-06-26T06:49:00.218Z,24.40
2019-06-26T06:51:21.858Z,24.40
2019-06-26T06:53:42.759Z,24.60
2019-06-26T06:56:03.815Z,24.70
2019-06-26T06:58:24.781Z,25.10
2019-06-26T07:00:45.687Z,26.00
2019-06-26T07:03:06.497Z,26.50
2019-06-26T07:05:27.361Z,26.20
2019-06-26T07:07:48.294Z,25.80
2019-06-26T07:10:09.084Z,25.70
2019-06-26T07:12:31.116Z,25.90
2019-06-26T07:14:52.411Z,26.30
2019-06-26T07:17:20.732Z,26.50
2019-06-26T07:19:35.547Z,26.50
2019-06-26T07:21:55.836Z,26.30
2019-06-26T07:24:15.788Z,26.60
2019-06-26T07:26:35.784Z,26.70
2019-06-26T07:28:55.765Z,27.30
2019-06-26T07:31:15.661Z,27.30
2019-06-26T07:33:36.538Z,27.60
2019-06-26T07:35:56.585Z,27.60
2019-06-26T07:38:17.869Z,28.10
2019-06-26T07:40:38.156Z,28.40
2019-06-26T07:42:58.415Z,28.30
2019-06-26T07:45:23.040Z,28.40
2019-06-26T07:47:43.713Z,28.60
2019-06-26T07:50:03.178Z,28.60
2019-06-26T07:52:22.973Z,28.90
2019-06-26T07:54:42.958Z,28.90
2019-06-26T07:57:03.210Z,29.30
2019-06-26T07:59:23.265Z,29.60
2019-06-26T08:01:43.194Z,29.10
2019-06-26T08:04:03.189Z,29.20
2019-06-26T08:06:23.208Z,29.30
2019-06-26T08:08:43.205Z,29.50
2019-06-26T08:11:06.386Z,30.00
2019-06-26T08:13:25.278Z,29.80
2019-06-26T08:15:45.225Z,29.40
2019-06-26T08:18:05.286Z,29.90
2019-06-26T08:20:25.244Z,29.80
2019-06-26T08:22:45.195Z,30.10
2019-06-26T08:25:08.693Z,30.10
2019-06-26T08:27:28.802Z,30.70
2019-06-26T08:29:48.746Z,30.80
2019-06-26T08:32:08.620Z,31.20
2019-06-26T08:34:28.602Z,31.50
2019-06-26T08:36:48.642Z,31.70
2019-06-26T08:39:08.863Z,32.10
2019-06-26T08:41:29.161Z,32.90
2019-06-26T08:43:49.164Z,32.80
2019-06-26T08:46:09.141Z,31.90
2019-06-26T08:48:39.421Z,31.50
2019-06-26T08:50:51.002Z,31.80
2019-06-26T08:53:11.013Z,32.50
2019-06-26T08:55:31.004Z,31.20
2019-06-26T08:57:51.534Z,30.50
2019-06-26T09:00:12.952Z,31.30
2019-06-26T09:02:33.515Z,31.40
2019-06-26T09:04:53.596Z,31.20
2019-06-26T09:07:13.690Z,31.80
2019-06-26T09:09:34.044Z,31.50
2019-06-26T09:11:54.194Z,31.70
2019-06-26T09:14:14.108Z,31.70
2019-06-26T09:16:34.343Z,31.40
2019-06-26T09:18:54.325Z,31.70
2019-06-26T09:21:14.273Z,32.10
2019-06-26T09:23:34.179Z,31.40
2019-06-26T09:25:54.227Z,31.20
2019-06-26T09:28:14.168Z,31.10
2019-06-26T09:30:34.192Z,31.70
2019-06-26T09:32:54.578Z,31.80
2019-06-26T09:35:15.081Z,32.20
2019-06-26T09:37:35.899Z,32.70
2019-06-26T09:39:56.510Z,32.50
2019-06-26T09:42:19.572Z,32.70
2019-06-26T09:44:38.797Z,32.90
2019-06-26T09:46:58.708Z,32.40
2019-06-26T09:49:18.702Z,32.20
2019-06-26T09:51:38.720Z,32.50
2019-06-26T09:53:59.037Z,32.50
2019-06-26T09:56:19.466Z,32.50
2019-06-26T09:58:39.410Z,32.50
2019-06-26T10:00:59.485Z,32.60
2019-06-26T10:03:19.372Z,32.20
2019-06-26T10:05:39.727Z,32.40
2019-06-26T10:07:59.634Z,32.60
2019-06-26T10:10:19.581Z,32.20
2019-06-26T10:12:39.954Z,32.10
2019-06-26T10:14:59.972Z,32.10
2019-06-26T10:17:19.956Z,32.40
2019-06-26T10:19:39.935Z,32.50
2019-06-26T10:21:59.881Z,32.50
2019-06-26T10:24:19.826Z,32.10
2019-06-26T10:26:39.958Z,32.20
2019-06-26T10:28:59.897Z,32.10
2019-06-26T10:31:19.990Z,32.10
2019-06-26T10:33:40.007Z,32.00
2019-06-26T10:36:00.197Z,32.30
2019-06-26T10:38:20.186Z,32.60
2019-06-26T10:40:40.259Z,33.10
2019-06-26T10:43:00.427Z,32.60
2019-06-26T10:45:20.454Z,32.50
2019-06-26T10:47:40.592Z,32.80
2019-06-26T10:50:00.562Z,32.30
2019-06-26T10:52:20.474Z,32.00
2019-06-26T10:54:44.341Z,32.90
2019-06-26T10:57:03.739Z,33.20
2019-06-26T10:59:23.696Z,33.40
2019-06-26T11:01:43.599Z,33.30
2019-06-26T11:04:04.990Z,33.30
2019-06-26T11:06:25.032Z,33.30
2019-06-26T11:08:45.082Z,33.10
2019-06-26T11:11:05.017Z,33.00
2019-06-26T11:13:24.892Z,33.50
2019-06-26T11:15:44.871Z,33.80
2019-06-26T11:18:04.950Z,33.90
2019-06-26T11:20:25.007Z,33.80
2019-06-26T11:22:45.085Z,33.60
2019-06-26T11:25:06.996Z,32.90
2019-06-26T11:27:27.967Z,32.70
2019-06-26T11:29:47.941Z,33.20
2019-06-26T11:32:09.583Z,33.50
2019-06-26T11:34:29.582Z,33.40
2019-06-26T11:37:03.020Z,33.60
2019-06-26T11:39:11.162Z,33.60
2019-06-26T11:41:31.145Z,33.20
2019-06-26T11:43:51.155Z,33.30
2019-06-26T11:46:11.156Z,33.60
2019-06-26T11:48:31.167Z,33.60
2019-06-26T11:50:51.115Z,33.60
2019-06-26T11:53:11.094Z,33.60
2019-06-26T11:55:31.188Z,33.40
2019-06-26T11:57:51.523Z,33.10
2019-06-26T12:00:16.826Z,33.30
2019-06-26T12:02:36.772Z,33.50
2019-06-26T12:04:57.084Z,33.70
2019-06-26T12:07:17.296Z,34.10
2019-06-26T12:09:37.221Z,34.30
2019-06-26T12:11:57.311Z,34.10
2019-06-26T12:14:17.185Z,34.00
2019-06-26T12:16:37.254Z,34.10
2019-06-26T12:18:57.306Z,34.30
2019-06-26T12:21:17.252Z,34.70
2019-06-26T12:23:37.202Z,34.50
2019-06-26T12:25:57.394Z,34.10
2019-06-26T12:28:17.336Z,34.10
2019-06-26T12:30:37.359Z,34.00
2019-06-26T12:33:03.223Z,34.00
2019-06-26T12:35:19.045Z,34.40
2019-06-26T12:37:39.023Z,34.00
2019-06-26T12:39:58.998Z,34.20
2019-06-26T12:42:18.967Z,34.20
2019-06-26T12:44:38.988Z,33.70
2019-06-26T12:46:58.961Z,33.30
2019-06-26T12:49:18.953Z,33.70
2019-06-26T12:51:38.898Z,33.50
2019-06-26T12:53:59.849Z,34.40
2019-06-26T12:56:19.796Z,34.20
2019-06-26T12:58:39.896Z,34.30
2019-06-26T13:00:59.874Z,34.00
2019-06-26T13:03:19.864Z,34.70
2019-06-26T13:05:39.766Z,34.90
2019-06-26T13:08:00.041Z,34.30
2019-06-26T13:10:20.420Z,34.20
2019-06-26T13:12:40.467Z,34.70
2019-06-26T13:15:00.407Z,34.40
2019-06-26T13:17:21.560Z,34.30
2019-06-26T13:19:41.538Z,34.30
2019-06-26T13:22:01.817Z,34.90
2019-06-26T13:24:21.779Z,35.30
2019-06-26T13:26:41.830Z,35.30
2019-06-26T13:29:01.727Z,35.10
2019-06-26T13:31:21.949Z,35.40
2019-06-26T13:33:41.928Z,35.20
2019-06-26T13:36:02.116Z,35.10
2019-06-26T13:38:22.052Z,35.20
2019-06-26T13:40:42.028Z,35.00
2019-06-26T13:43:02.191Z,35.40
2019-06-26T13:45:22.158Z,35.40
2019-06-26T13:47:42.281Z,35.00
2019-06-26T13:50:02.914Z,34.90
2019-06-26T13:52:22.987Z,35.00
2019-06-26T13:54:42.901Z,35.00
2019-06-26T13:57:02.805Z,35.00
2019-06-26T13:59:22.766Z,35.50
2019-06-26T14:01:42.728Z,35.20
2019-06-26T14:04:02.633Z,35.10
2019-06-26T14:06:22.622Z,35.30
2019-06-26T14:08:42.555Z,35.50
2019-06-26T14:11:02.864Z,34.60
2019-06-26T14:13:22.981Z,34.30
2019-06-26T14:15:43.061Z,34.70
2019-06-26T14:18:03.016Z,35.40
2019-06-26T14:20:24.185Z,35.30
2019-06-26T14:22:44.200Z,36.00
2019-06-26T14:25:06.329Z,35.20
2019-06-26T14:27:26.672Z,35.80
2019-06-26T14:29:46.655Z,35.70
2019-06-26T14:32:06.827Z,34.80
2019-06-26T14:34:27.980Z,34.90
2019-06-26T14:36:49.246Z,35.20
2019-06-26T14:39:09.352Z,34.60
2019-06-26T14:41:29.328Z,35.10
2019-06-26T14:43:49.290Z,35.00
2019-06-26T14:46:09.264Z,34.60
2019-06-26T14:48:29.357Z,35.40
2019-06-26T14:50:49.328Z,35.60
2019-06-26T14:53:09.199Z,35.40
2019-06-26T14:55:29.124Z,35.90
2019-06-26T14:57:49.134Z,35.20
2019-06-26T15:00:09.925Z,35.00
2019-06-26T15:02:31.879Z,35.90
2019-06-26T15:04:51.723Z,36.20
2019-06-26T15:07:11.702Z,35.80
2019-06-26T15:09:31.766Z,36.10
2019-06-26T15:11:51.713Z,36.50
2019-06-26T15:14:11.677Z,36.60
2019-06-26T15:16:31.720Z,36.80
2019-06-26T15:18:51.699Z,36.20
2019-06-26T15:21:11.674Z,36.20
2019-06-26T15:23:31.638Z,36.20
2019-06-26T15:25:51.717Z,35.60
2019-06-26T15:28:11.744Z,35.50
2019-06-26T15:30:31.777Z,35.80
2019-06-26T15:32:51.761Z,35.50
2019-06-26T15:35:11.965Z,35.20
2019-06-26T15:37:31.969Z,34.50
2019-06-26T15:39:51.893Z,34.50
2019-06-26T15:42:11.803Z,34.20
2019-06-26T15:44:31.810Z,33.80
2019-06-26T15:46:51.835Z,33.40
2019-06-26T15:49:11.816Z,33.60
2019-06-26T15:51:31.843Z,33.60
2019-06-26T15:53:51.759Z,33.70
2019-06-26T15:56:11.870Z,33.40
2019-06-26T15:58:31.900Z,33.40
2019-06-26T16:00:52.196Z,33.30
2019-06-26T16:03:13.151Z,33.30
2019-06-26T16:05:33.024Z,33.40
2019-06-26T16:07:52.918Z,32.90
2019-06-26T16:10:13.326Z,33.00
2019-06-26T16:12:33.272Z,32.90
2019-06-26T16:14:53.252Z,33.00
2019-06-26T16:17:14.771Z,32.50
2019-06-26T16:19:35.463Z,32.00
2019-06-26T16:21:56.744Z,32.20
2019-06-26T16:24:17.019Z,32.30
2019-06-26T16:26:37.203Z,32.20
2019-06-26T16:28:57.270Z,31.70
2019-06-26T16:31:17.604Z,31.70
2019-06-26T16:33:37.847Z,31.70
2019-06-26T16:35:58.946Z,31.70
2019-06-26T16:38:19.078Z,31.60
2019-06-26T16:40:39.135Z,31.50
2019-06-26T16:42:59.095Z,31.50
2019-06-26T16:45:19.147Z,31.50
2019-06-26T16:47:41.042Z,31.50
2019-06-26T16:50:01.036Z,31.40
2019-06-26T16:52:20.948Z,31.40
2019-06-26T16:54:40.857Z,31.40
2019-06-26T16:57:00.829Z,31.30
2019-06-26T16:59:21.414Z,31.20
2019-06-26T17:01:42.134Z,31.10
2019-06-26T17:04:02.140Z,30.80
2019-06-26T17:06:22.736Z,30.90
2019-06-26T17:08:43.013Z,30.90
2019-06-26T17:11:03.416Z,30.90
2019-06-26T17:13:23.648Z,30.90
2019-06-26T17:15:44.172Z,30.80
2019-06-26T17:18:04.476Z,30.70
2019-06-26T17:20:24.438Z,30.70
2019-06-26T17:22:44.454Z,30.60
2019-06-26T17:25:05.513Z,30.50
2019-06-26T17:27:25.577Z,30.40
2019-06-26T17:29:45.633Z,30.30
2019-06-26T17:32:05.690Z,30.20
2019-06-26T17:34:27.292Z,30.20
2019-06-26T17:36:47.924Z,30.20
2019-06-26T17:39:08.141Z,30.10
2019-06-26T17:41:28.159Z,30.10
2019-06-26T17:43:48.190Z,30.00
2019-06-26T17:46:08.258Z,30.00
2019-06-26T17:48:28.208Z,29.90
2019-06-26T17:50:48.193Z,29.80
2019-06-26T17:53:20.986Z,29.80
2019-06-26T17:55:30.464Z,29.70
2019-06-26T17:57:51.023Z,29.60
2019-06-26T18:00:14.114Z,29.60
2019-06-26T18:02:34.212Z,29.60
2019-06-26T18:04:54.188Z,29.50
2019-06-26T18:07:14.139Z,29.50
2019-06-26T18:09:34.064Z,29.40
2019-06-26T18:11:53.933Z,29.30
2019-06-26T18:14:14.348Z,29.30
2019-06-26T18:16:34.586Z,29.20
2019-06-26T18:18:54.825Z,29.20
2019-06-26T18:21:15.085Z,29.10
2019-06-26T18:23:38.164Z,29.10
2019-06-26T18:26:11.858Z,29.00
2019-06-26T18:28:19.195Z,29.00
2019-06-26T18:30:39.518Z,28.90
2019-06-26T18:32:59.752Z,28.80
2019-06-26T18:35:20.206Z,28.70
2019-06-26T18:37:40.775Z,28.60
2019-06-26T18:40:01.017Z,28.60
2019-06-26T18:42:22.307Z,28.60
2019-06-26T18:44:42.458Z,28.50
2019-06-26T18:47:02.689Z,28.50
2019-06-26T18:49:22.953Z,28.40
2019-06-26T18:51:43.184Z,28.30
2019-06-26T18:54:03.554Z,28.20
2019-06-26T18:56:23.841Z,28.20
2019-06-26T18:58:44.675Z,28.10
2019-06-26T19:01:04.969Z,28.00
2019-06-26T19:03:25.297Z,28.00
2019-06-26T19:05:45.464Z,27.80
2019-06-26T19:08:05.756Z,27.60
2019-06-26T19:10:25.973Z,27.40
2019-06-26T19:12:46.214Z,27.30
2019-06-26T19:15:07.006Z,27.20
2019-06-26T19:17:28.123Z,27.00
2019-06-26T19:19:48.321Z,26.90
2019-06-26T19:22:08.357Z,26.90
2019-06-26T19:24:28.696Z,26.80
2019-06-26T19:26:48.982Z,26.80
2019-06-26T19:29:09.455Z,26.70
2019-06-26T19:31:29.751Z,26.60
2019-06-26T19:33:50.058Z,26.70
2019-06-26T19:36:10.270Z,26.60
2019-06-26T19:38:30.536Z,26.50
2019-06-26T19:40:52.446Z,26.50
2019-06-26T19:43:12.692Z,26.50
2019-06-26T19:45:33.104Z,26.50
2019-06-26T19:47:53.511Z,26.40
2019-06-26T19:50:14.165Z,26.30
2019-06-26T19:52:34.522Z,26.40
2019-06-26T19:54:54.937Z,26.20
2019-06-26T19:57:15.254Z,26.20
2019-06-26T19:59:35.594Z,26.10
2019-06-26T20:01:56.015Z,26.10
2019-06-26T20:04:16.250Z,26.10
2019-06-26T20:06:36.491Z,26.00
2019-06-26T20:08:57.749Z,25.90
2019-06-26T20:11:18.056Z,25.90
2019-06-26T20:13:38.263Z,25.80
2019-06-26T20:15:58.585Z,25.80
2019-06-26T20:18:18.926Z,25.70
2019-06-26T20:20:39.308Z,25.70
2019-06-26T20:22:59.680Z,25.60
2019-06-26T20:25:20.019Z,25.50
2019-06-26T20:27:40.549Z,25.50
2019-06-26T20:30:02.053Z,25.40
2019-06-26T20:32:22.501Z,25.40
2019-06-26T20:34:42.873Z,25.30
2019-06-26T20:37:03.217Z,25.30
2019-06-26T20:39:25.433Z,25.20
2019-06-26T20:41:48.106Z,25.10
2019-06-26T20:44:07.335Z,25.10
2019-06-26T20:46:27.080Z,25.00
2019-06-26T20:48:47.150Z,25.00
2019-06-26T20:51:07.315Z,24.90
2019-06-26T20:53:28.804Z,24.90
2019-06-26T20:55:48.788Z,24.90
2019-06-26T20:58:08.774Z,24.80
2019-06-26T21:00:28.834Z,24.80
2019-06-26T21:02:48.803Z,24.80
2019-06-26T21:05:09.922Z,24.80
2019-06-26T21:07:29.897Z,24.70
2019-06-26T21:09:49.864Z,24.60
2019-06-26T21:12:09.788Z,24.40
2019-06-26T21:14:30.035Z,24.40
2019-06-26T21:16:50.331Z,24.30
2019-06-26T21:19:10.594Z,24.20
2019-06-26T21:21:30.875Z,24.20
2019-06-26T21:23:51.162Z,24.10
2019-06-26T21:26:11.364Z,24.00
2019-06-26T21:28:31.620Z,24.00
2019-06-26T21:30:51.884Z,23.90
2019-06-26T21:33:12.149Z,23.90
2019-06-26T21:35:32.327Z,23.90
2019-06-26T21:37:52.688Z,23.80
2019-06-26T21:40:13.775Z,23.90
2019-06-26T21:42:34.043Z,23.80
2019-06-26T21:44:54.234Z,23.80
2019-06-26T21:47:16.023Z,23.70
2019-06-26T21:49:36.471Z,23.70
2019-06-26T21:51:56.785Z,23.70
2019-06-26T21:54:18.306Z,23.60
2019-06-26T21:56:56.504Z,23.60
2019-06-26T21:59:34.610Z,23.60
2019-06-26T22:02:13.019Z,23.70
2019-06-26T22:04:41.460Z,23.60
2019-06-26T22:07:12.406Z,23.40
2019-06-26T22:09:34.288Z,23.30
2019-06-26T22:11:54.609Z,23.30
2019-06-26T22:14:14.962Z,23.20
2019-06-26T22:16:35.446Z,23.20
2019-06-26T22:18:55.817Z,23.10
2019-06-26T22:21:16.042Z,23.10
2019-06-26T22:23:36.411Z,23.10
2019-06-26T22:25:57.043Z,23.00
2019-06-26T22:28:17.315Z,23.00
2019-06-26T22:30:39.642Z,23.00
2019-06-26T22:32:59.585Z,23.00
2019-06-26T22:35:20.797Z,22.90
2019-06-26T22:37:41.174Z,22.90
2019-06-26T22:40:01.749Z,23.00
2019-06-26T22:42:25.035Z,22.90
2019-06-26T22:44:45.233Z,22.80
2019-06-26T22:47:05.433Z,22.80
2019-06-26T22:49:25.830Z,22.80
2019-06-26T22:51:46.089Z,22.80
2019-06-26T22:54:06.345Z,22.80
2019-06-26T22:56:26.945Z,22.70
2019-06-26T22:58:47.193Z,22.70
2019-06-26T23:01:09.022Z,22.60
2019-06-26T23:03:29.376Z,22.50
2019-06-26T23:05:49.818Z,22.50
2019-06-26T23:08:10.096Z,22.40
2019-06-26T23:10:30.438Z,22.40
2019-06-26T23:12:50.762Z,22.50
2019-06-26T23:15:11.347Z,22.50
2019-06-26T23:17:31.693Z,22.50
2019-06-26T23:19:51.876Z,22.50
2019-06-26T23:22:12.169Z,22.30
2019-06-26T23:24:32.562Z,22.30
2019-06-26T23:26:52.753Z,22.30
2019-06-26T23:29:13.053Z,22.40
2019-06-26T23:31:33.304Z,22.30
2019-06-26T23:33:55.279Z,22.30
2019-06-26T23:36:15.347Z,22.20
2019-06-26T23:38:35.301Z,22.20
2019-06-26T23:40:55.403Z,22.10
2019-06-26T23:43:15.434Z,22.10
2019-06-26T23:45:35.704Z,22.10
2019-06-26T23:47:55.965Z,22.10
2019-06-26T23:50:16.213Z,22.10
2019-06-26T23:52:36.556Z,22.10
2019-06-26T23:54:57.124Z,22.10
2019-06-26T23:57:17.382Z,22.00
2019-06-26T23:59:37.647Z,22.00
